sensor_id;sensor_type;location;lat;lon;timestamp;P1;durP1;ratioP1;P2;durP2;ratioP2
74335;SDS011;62755;-33.398;-70.572;2023-04-24T00:01:17;26.33;;;12.07;;
74335;SDS011;62755;-33.398;-70.572;2023-04-24T00:04:07;26.80;;;13.23;;
74335;SDS011;62755;-33.398;-70.572;2023-04-24T00:07:04;30.08;;;13.38;;
74335;SDS011;62755;-33.398;-70.572;2023-04-24T00:09:53;23.02;;;12.68;;
74335;SDS011;62755;-33.398;-70.572;2023-04-24T00:12:43;21.42;;;12.20;;
74335;SDS011;62755;-33.398;-70.572;2023-04-24T00:15:33;25.73;;;12.15;;
74335;SDS011;62755;-33.398;-70.572;2023-04-24T00:18:23;25.77;;;11.82;;
74335;SDS011;62755;-33.398;-70.572;2023-04-24T00:21:12;26.75;;;11.20;;
74335;SDS011;62755;-33.398;-70.572;2023-04-24T00:24:05;24.60;;;12.00;;
74335;SDS011;62755;-33.398;-70.572;2023-04-24T00:26:56;22.52;;;11.82;;
74335;SDS011;62755;-33.398;-70.572;2023-04-24T00:29:46;26.58;;;12.18;;
74335;SDS011;62755;-33.398;-70.572;2023-04-24T00:32:36;23.25;;;13.02;;
74335;SDS011;62755;-33.398;-70.572;2023-04-24T00:35:25;24.90;;;12.60;;
74335;SDS011;62755;-33.398;-70.572;2023-04-24T00:38:15;30.13;;;14.10;;
74335;SDS011;62755;-33.398;-70.572;2023-04-24T00:41:06;29.67;;;13.05;;
74335;SDS011;62755;-33.398;-70.572;2023-04-24T00:43:56;28.45;;;13.38;;
74335;SDS011;62755;-33.398;-70.572;2023-04-24T00:46:46;30.00;;;13.27;;
74335;SDS011;62755;-33.398;-70.572;2023-04-24T00:49:40;27.77;;;13.60;;
74335;SDS011;62755;-33.398;-70.572;2023-04-24T00:52:29;34.22;;;19.38;;
74335;SDS011;62755;-33.398;-70.572;2023-04-24T00:55:19;30.05;;;16.42;;
74335;SDS011;62755;-33.398;-70.572;2023-04-24T00:58:10;37.38;;;15.13;;
74335;SDS011;62755;-33.398;-70.572;2023-04-24T01:01:00;26.00;;;13.90;;
74335;SDS011;62755;-33.398;-70.572;2023-04-24T01:03:52;36.17;;;13.90;;
74335;SDS011;62755;-33.398;-70.572;2023-04-24T01:06:43;23.23;;;13.02;;
74335;SDS011;62755;-33.398;-70.572;2023-04-24T01:09:33;27.42;;;14.00;;
74335;SDS011;62755;-33.398;-70.572;2023-04-24T01:12:24;29.05;;;14.55;;
74335;SDS011;62755;-33.398;-70.572;2023-04-24T01:15:15;20.52;;;12.52;;
74335;SDS011;62755;-33.398;-70.572;2023-04-24T01:18:05;29.85;;;15.10;;
74335;SDS011;62755;-33.398;-70.572;2023-04-24T01:20:56;25.05;;;14.65;;
74335;SDS011;62755;-33.398;-70.572;2023-04-24T01:23:48;29.52;;;15.43;;
74335;SDS011;62755;-33.398;-70.572;2023-04-24T01:26:38;26.23;;;13.73;;
74335;SDS011;62755;-33.398;-70.572;2023-04-24T01:29:28;33.22;;;14.20;;
74335;SDS011;62755;-33.398;-70.572;2023-04-24T01:32:17;31.42;;;14.38;;
74335;SDS011;62755;-33.398;-70.572;2023-04-24T01:35:08;33.10;;;15.88;;
74335;SDS011;62755;-33.398;-70.572;2023-04-24T01:37:57;26.27;;;14.75;;
74335;SDS011;62755;-33.398;-70.572;2023-04-24T01:40:49;35.13;;;14.68;;
74335;SDS011;62755;-33.398;-70.572;2023-04-24T01:43:39;29.80;;;13.75;;
74335;SDS011;62755;-33.398;-70.572;2023-04-24T01:46:28;28.23;;;14.15;;
74335;SDS011;62755;-33.398;-70.572;2023-04-24T01:49:18;24.35;;;12.70;;
74335;SDS011;62755;-33.398;-70.572;2023-04-24T01:52:07;28.38;;;14.05;;
74335;SDS011;62755;-33.398;-70.572;2023-04-24T01:54:59;24.30;;;14.57;;
74335;SDS011;62755;-33.398;-70.572;2023-04-24T01:57:51;30.40;;;15.05;;
74335;SDS011;62755;-33.398;-70.572;2023-04-24T02:00:43;29.25;;;14.88;;
74335;SDS011;62755;-33.398;-70.572;2023-04-24T02:03:33;27.88;;;14.80;;
74335;SDS011;62755;-33.398;-70.572;2023-04-24T02:06:22;36.08;;;17.73;;
74335;SDS011;62755;-33.398;-70.572;2023-04-24T02:09:12;141.15;;;89.47;;
74335;SDS011;62755;-33.398;-70.572;2023-04-24T02:12:01;48.30;;;25.48;;
74335;SDS011;62755;-33.398;-70.572;2023-04-24T02:14:53;34.65;;;17.13;;
74335;SDS011;62755;-33.398;-70.572;2023-04-24T02:17:42;39.88;;;19.42;;
74335;SDS011;62755;-33.398;-70.572;2023-04-24T02:20:32;38.60;;;20.73;;
74335;SDS011;62755;-33.398;-70.572;2023-04-24T02:23:22;35.35;;;16.95;;
74335;SDS011;62755;-33.398;-70.572;2023-04-24T02:26:11;31.40;;;15.70;;
74335;SDS011;62755;-33.398;-70.572;2023-04-24T02:29:01;32.08;;;16.40;;
74335;SDS011;62755;-33.398;-70.572;2023-04-24T02:31:52;34.30;;;16.05;;
74335;SDS011;62755;-33.398;-70.572;2023-04-24T02:34:42;30.00;;;15.48;;
74335;SDS011;62755;-33.398;-70.572;2023-04-24T02:37:31;32.55;;;15.05;;
74335;SDS011;62755;-33.398;-70.572;2023-04-24T02:40:21;33.13;;;15.70;;
74335;SDS011;62755;-33.398;-70.572;2023-04-24T02:43:10;23.52;;;14.25;;
74335;SDS011;62755;-33.398;-70.572;2023-04-24T02:46:01;28.67;;;14.65;;
74335;SDS011;62755;-33.398;-70.572;2023-04-24T02:48:52;35.72;;;16.40;;
74335;SDS011;62755;-33.398;-70.572;2023-04-24T02:51:42;33.45;;;15.70;;
74335;SDS011;62755;-33.398;-70.572;2023-04-24T02:54:31;31.67;;;17.33;;
74335;SDS011;62755;-33.398;-70.572;2023-04-24T02:57:20;51.65;;;30.38;;
74335;SDS011;62755;-33.398;-70.572;2023-04-24T03:00:10;35.75;;;21.92;;
74335;SDS011;62755;-33.398;-70.572;2023-04-24T03:03:00;30.83;;;15.40;;
74335;SDS011;62755;-33.398;-70.572;2023-04-24T03:05:52;34.58;;;18.20;;
74335;SDS011;62755;-33.398;-70.572;2023-04-24T03:08:42;33.08;;;15.88;;
74335;SDS011;62755;-33.398;-70.572;2023-04-24T03:11:32;29.45;;;15.20;;
74335;SDS011;62755;-33.398;-70.572;2023-04-24T03:14:22;26.42;;;14.15;;
74335;SDS011;62755;-33.398;-70.572;2023-04-24T03:17:11;30.15;;;14.18;;
74335;SDS011;62755;-33.398;-70.572;2023-04-24T03:20:01;22.92;;;14.55;;
74335;SDS011;62755;-33.398;-70.572;2023-04-24T03:22:52;26.88;;;14.73;;
74335;SDS011;62755;-33.398;-70.572;2023-04-24T03:25:43;24.80;;;13.98;;
74335;SDS011;62755;-33.398;-70.572;2023-04-24T03:28:34;34.50;;;16.98;;
74335;SDS011;62755;-33.398;-70.572;2023-04-24T03:31:23;33.78;;;16.73;;
74335;SDS011;62755;-33.398;-70.572;2023-04-24T03:34:13;32.13;;;20.17;;
74335;SDS011;62755;-33.398;-70.572;2023-04-24T03:37:02;33.08;;;18.83;;
74335;SDS011;62755;-33.398;-70.572;2023-04-24T03:39:53;29.75;;;17.17;;
74335;SDS011;62755;-33.398;-70.572;2023-04-24T03:42:43;34.17;;;18.98;;
74335;SDS011;62755;-33.398;-70.572;2023-04-24T03:45:32;32.17;;;18.58;;
74335;SDS011;62755;-33.398;-70.572;2023-04-24T03:48:22;53.30;;;29.15;;
74335;SDS011;62755;-33.398;-70.572;2023-04-24T03:51:11;85.70;;;52.05;;
74335;SDS011;62755;-33.398;-70.572;2023-04-24T03:54:01;46.53;;;29.40;;
74335;SDS011;62755;-33.398;-70.572;2023-04-24T03:56:52;22.13;;;16.10;;
74335;SDS011;62755;-33.398;-70.572;2023-04-24T03:59:42;25.02;;;16.95;;
74335;SDS011;62755;-33.398;-70.572;2023-04-24T04:02:31;34.03;;;22.95;;
74335;SDS011;62755;-33.398;-70.572;2023-04-24T04:05:21;27.45;;;16.00;;
74335;SDS011;62755;-33.398;-70.572;2023-04-24T04:08:10;33.58;;;19.20;;
74335;SDS011;62755;-33.398;-70.572;2023-04-24T04:11:00;34.42;;;18.38;;
74335;SDS011;62755;-33.398;-70.572;2023-04-24T04:13:51;21.35;;;13.18;;
74335;SDS011;62755;-33.398;-70.572;2023-04-24T04:16:41;24.92;;;14.98;;
74335;SDS011;62755;-33.398;-70.572;2023-04-24T04:19:30;27.33;;;15.77;;
74335;SDS011;62755;-33.398;-70.572;2023-04-24T04:22:20;41.53;;;22.80;;
74335;SDS011;62755;-33.398;-70.572;2023-04-24T04:25:10;35.45;;;22.30;;
74335;SDS011;62755;-33.398;-70.572;2023-04-24T04:27:59;33.58;;;17.52;;
74335;SDS011;62755;-33.398;-70.572;2023-04-24T04:30:51;28.15;;;18.00;;
74335;SDS011;62755;-33.398;-70.572;2023-04-24T04:33:41;26.65;;;15.32;;
74335;SDS011;62755;-33.398;-70.572;2023-04-24T04:36:31;29.17;;;14.15;;
74335;SDS011;62755;-33.398;-70.572;2023-04-24T04:39:22;24.33;;;14.30;;
74335;SDS011;62755;-33.398;-70.572;2023-04-24T04:42:12;22.52;;;13.77;;
74335;SDS011;62755;-33.398;-70.572;2023-04-24T04:45:02;24.60;;;13.65;;
74335;SDS011;62755;-33.398;-70.572;2023-04-24T04:47:54;22.75;;;14.18;;
74335;SDS011;62755;-33.398;-70.572;2023-04-24T04:50:43;23.05;;;13.25;;
74335;SDS011;62755;-33.398;-70.572;2023-04-24T04:53:33;26.45;;;14.30;;
74335;SDS011;62755;-33.398;-70.572;2023-04-24T04:56:23;20.98;;;13.23;;
74335;SDS011;62755;-33.398;-70.572;2023-04-24T04:59:12;25.73;;;14.48;;
74335;SDS011;62755;-33.398;-70.572;2023-04-24T05:02:02;27.98;;;14.43;;
74335;SDS011;62755;-33.398;-70.572;2023-04-24T05:04:53;21.25;;;13.25;;
74335;SDS011;62755;-33.398;-70.572;2023-04-24T05:07:43;21.73;;;13.05;;
74335;SDS011;62755;-33.398;-70.572;2023-04-24T05:10:33;30.33;;;13.98;;
74335;SDS011;62755;-33.398;-70.572;2023-04-24T05:13:22;24.88;;;13.85;;
74335;SDS011;62755;-33.398;-70.572;2023-04-24T05:16:12;19.48;;;12.27;;
74335;SDS011;62755;-33.398;-70.572;2023-04-24T05:19:02;17.42;;;11.55;;
74335;SDS011;62755;-33.398;-70.572;2023-04-24T05:21:53;24.38;;;13.70;;
74335;SDS011;62755;-33.398;-70.572;2023-04-24T05:24:43;22.33;;;12.95;;
74335;SDS011;62755;-33.398;-70.572;2023-04-24T05:27:32;23.80;;;13.50;;
74335;SDS011;62755;-33.398;-70.572;2023-04-24T05:30:22;21.33;;;12.57;;
74335;SDS011;62755;-33.398;-70.572;2023-04-24T05:33:12;23.30;;;12.10;;
74335;SDS011;62755;-33.398;-70.572;2023-04-24T05:36:01;26.08;;;14.38;;
74335;SDS011;62755;-33.398;-70.572;2023-04-24T05:38:53;39.42;;;21.88;;
74335;SDS011;62755;-33.398;-70.572;2023-04-24T05:41:42;20.13;;;14.18;;
74335;SDS011;62755;-33.398;-70.572;2023-04-24T05:44:32;28.67;;;16.08;;
74335;SDS011;62755;-33.398;-70.572;2023-04-24T05:47:21;27.10;;;15.50;;
74335;SDS011;62755;-33.398;-70.572;2023-04-24T05:50:12;25.23;;;13.25;;
74335;SDS011;62755;-33.398;-70.572;2023-04-24T05:53:01;25.30;;;12.38;;
74335;SDS011;62755;-33.398;-70.572;2023-04-24T05:55:54;20.20;;;11.07;;
74335;SDS011;62755;-33.398;-70.572;2023-04-24T05:58:44;17.50;;;9.90;;
74335;SDS011;62755;-33.398;-70.572;2023-04-24T06:01:33;22.40;;;10.45;;
74335;SDS011;62755;-33.398;-70.572;2023-04-24T06:04:23;15.50;;;10.05;;
74335;SDS011;62755;-33.398;-70.572;2023-04-24T06:07:12;14.60;;;9.25;;
74335;SDS011;62755;-33.398;-70.572;2023-04-24T06:10:02;24.63;;;11.07;;
74335;SDS011;62755;-33.398;-70.572;2023-04-24T06:12:54;15.18;;;10.48;;
74335;SDS011;62755;-33.398;-70.572;2023-04-24T06:15:46;12.15;;;9.07;;
74335;SDS011;62755;-33.398;-70.572;2023-04-24T06:18:35;14.23;;;9.00;;
74335;SDS011;62755;-33.398;-70.572;2023-04-24T06:21:24;16.95;;;8.07;;
74335;SDS011;62755;-33.398;-70.572;2023-04-24T06:24:14;20.08;;;8.85;;
74335;SDS011;62755;-33.398;-70.572;2023-04-24T06:27:10;16.73;;;8.98;;
74335;SDS011;62755;-33.398;-70.572;2023-04-24T06:30:01;16.03;;;8.63;;
74335;SDS011;62755;-33.398;-70.572;2023-04-24T06:32:51;15.07;;;8.82;;
74335;SDS011;62755;-33.398;-70.572;2023-04-24T06:35:40;15.85;;;9.07;;
74335;SDS011;62755;-33.398;-70.572;2023-04-24T06:38:30;16.60;;;9.48;;
74335;SDS011;62755;-33.398;-70.572;2023-04-24T06:41:19;15.23;;;9.18;;
74335;SDS011;62755;-33.398;-70.572;2023-04-24T06:44:09;17.67;;;9.70;;
74335;SDS011;62755;-33.398;-70.572;2023-04-24T06:47:04;19.52;;;10.20;;
74335;SDS011;62755;-33.398;-70.572;2023-04-24T06:49:54;22.88;;;10.50;;
74335;SDS011;62755;-33.398;-70.572;2023-04-24T06:52:44;23.33;;;10.43;;
74335;SDS011;62755;-33.398;-70.572;2023-04-24T06:55:34;14.30;;;9.82;;
74335;SDS011;62755;-33.398;-70.572;2023-04-24T06:58:25;20.77;;;10.30;;
74335;SDS011;62755;-33.398;-70.572;2023-04-24T07:01:14;20.10;;;10.85;;
74335;SDS011;62755;-33.398;-70.572;2023-04-24T07:04:05;16.60;;;9.75;;
74335;SDS011;62755;-33.398;-70.572;2023-04-24T07:06:55;16.63;;;9.65;;
74335;SDS011;62755;-33.398;-70.572;2023-04-24T07:09:44;12.48;;;8.27;;
74335;SDS011;62755;-33.398;-70.572;2023-04-24T07:12:34;16.98;;;8.02;;
74335;SDS011;62755;-33.398;-70.572;2023-04-24T07:15:23;15.85;;;7.05;;
74335;SDS011;62755;-33.398;-70.572;2023-04-24T07:18:13;13.57;;;6.82;;
74335;SDS011;62755;-33.398;-70.572;2023-04-24T07:21:04;12.27;;;6.90;;
74335;SDS011;62755;-33.398;-70.572;2023-04-24T07:23:54;13.07;;;6.68;;
74335;SDS011;62755;-33.398;-70.572;2023-04-24T07:26:43;14.77;;;6.50;;
74335;SDS011;62755;-33.398;-70.572;2023-04-24T07:29:33;9.85;;;6.57;;
74335;SDS011;62755;-33.398;-70.572;2023-04-24T07:32:23;16.20;;;5.88;;
74335;SDS011;62755;-33.398;-70.572;2023-04-24T07:35:13;9.23;;;5.97;;
74335;SDS011;62755;-33.398;-70.572;2023-04-24T07:38:04;10.90;;;5.90;;
74335;SDS011;62755;-33.398;-70.572;2023-04-24T07:40:53;11.48;;;6.18;;
74335;SDS011;62755;-33.398;-70.572;2023-04-24T07:43:44;14.20;;;6.18;;
74335;SDS011;62755;-33.398;-70.572;2023-04-24T07:46:33;9.13;;;5.88;;
74335;SDS011;62755;-33.398;-70.572;2023-04-24T07:49:23;8.95;;;5.38;;
74335;SDS011;62755;-33.398;-70.572;2023-04-24T07:52:13;20.73;;;6.22;;
74335;SDS011;62755;-33.398;-70.572;2023-04-24T07:55:05;9.48;;;5.75;;
74335;SDS011;62755;-33.398;-70.572;2023-04-24T07:57:55;12.95;;;6.70;;
74335;SDS011;62755;-33.398;-70.572;2023-04-24T08:00:44;11.32;;;6.25;;
74335;SDS011;62755;-33.398;-70.572;2023-04-24T08:03:34;10.93;;;5.95;;
74335;SDS011;62755;-33.398;-70.572;2023-04-24T08:06:23;17.08;;;7.40;;
74335;SDS011;62755;-33.398;-70.572;2023-04-24T08:09:16;12.88;;;7.13;;
74335;SDS011;62755;-33.398;-70.572;2023-04-24T08:12:07;12.93;;;7.40;;
74335;SDS011;62755;-33.398;-70.572;2023-04-24T08:14:57;14.40;;;7.28;;
74335;SDS011;62755;-33.398;-70.572;2023-04-24T08:17:46;15.27;;;9.40;;
74335;SDS011;62755;-33.398;-70.572;2023-04-24T08:20:35;12.27;;;7.72;;
74335;SDS011;62755;-33.398;-70.572;2023-04-24T08:23:25;13.45;;;7.95;;
74335;SDS011;62755;-33.398;-70.572;2023-04-24T08:26:16;11.55;;;7.72;;
74335;SDS011;62755;-33.398;-70.572;2023-04-24T08:29:07;14.38;;;8.10;;
74335;SDS011;62755;-33.398;-70.572;2023-04-24T08:31:57;15.95;;;7.97;;
74335;SDS011;62755;-33.398;-70.572;2023-04-24T08:34:46;12.95;;;7.10;;
74335;SDS011;62755;-33.398;-70.572;2023-04-24T08:37:38;15.57;;;7.28;;
74335;SDS011;62755;-33.398;-70.572;2023-04-24T08:40:28;15.32;;;7.20;;
74335;SDS011;62755;-33.398;-70.572;2023-04-24T08:43:21;10.52;;;6.72;;
74335;SDS011;62755;-33.398;-70.572;2023-04-24T08:46:13;15.52;;;6.07;;
74335;SDS011;62755;-33.398;-70.572;2023-04-24T08:49:04;12.57;;;6.18;;
74335;SDS011;62755;-33.398;-70.572;2023-04-24T08:51:54;13.15;;;5.65;;
74335;SDS011;62755;-33.398;-70.572;2023-04-24T08:54:45;12.77;;;6.28;;
74335;SDS011;62755;-33.398;-70.572;2023-04-24T08:57:35;13.15;;;5.55;;
74335;SDS011;62755;-33.398;-70.572;2023-04-24T09:00:26;11.90;;;4.75;;
74335;SDS011;62755;-33.398;-70.572;2023-04-24T09:03:17;13.10;;;5.03;;
74335;SDS011;62755;-33.398;-70.572;2023-04-24T09:06:09;10.48;;;5.18;;
74335;SDS011;62755;-33.398;-70.572;2023-04-24T09:09:00;11.23;;;4.70;;
74335;SDS011;62755;-33.398;-70.572;2023-04-24T09:11:51;10.40;;;4.97;;
74335;SDS011;62755;-33.398;-70.572;2023-04-24T09:14:41;7.88;;;4.18;;
74335;SDS011;62755;-33.398;-70.572;2023-04-24T09:17:31;9.50;;;4.40;;
74335;SDS011;62755;-33.398;-70.572;2023-04-24T09:20:23;7.45;;;4.35;;
74335;SDS011;62755;-33.398;-70.572;2023-04-24T09:23:17;10.55;;;4.82;;
74335;SDS011;62755;-33.398;-70.572;2023-04-24T09:26:07;10.10;;;5.35;;
74335;SDS011;62755;-33.398;-70.572;2023-04-24T09:29:00;10.38;;;5.88;;
74335;SDS011;62755;-33.398;-70.572;2023-04-24T09:31:49;9.57;;;4.93;;
74335;SDS011;62755;-33.398;-70.572;2023-04-24T09:34:39;11.90;;;5.20;;
74335;SDS011;62755;-33.398;-70.572;2023-04-24T09:37:34;15.30;;;4.63;;
74335;SDS011;62755;-33.398;-70.572;2023-04-24T09:40:24;9.82;;;5.43;;
74335;SDS011;62755;-33.398;-70.572;2023-04-24T09:43:14;13.55;;;6.43;;
74335;SDS011;62755;-33.398;-70.572;2023-04-24T09:46:07;10.82;;;7.07;;
74335;SDS011;62755;-33.398;-70.572;2023-04-24T09:48:57;13.73;;;5.93;;
74335;SDS011;62755;-33.398;-70.572;2023-04-24T09:52:02;11.68;;;5.95;;
74335;SDS011;62755;-33.398;-70.572;2023-04-24T09:57:49;16.52;;;6.88;;
74335;SDS011;62755;-33.398;-70.572;2023-04-24T10:00:40;17.83;;;7.88;;
74335;SDS011;62755;-33.398;-70.572;2023-04-24T10:03:29;15.15;;;7.40;;
74335;SDS011;62755;-33.398;-70.572;2023-04-24T10:06:20;11.18;;;6.95;;
74335;SDS011;62755;-33.398;-70.572;2023-04-24T10:09:09;15.60;;;7.15;;
74335;SDS011;62755;-33.398;-70.572;2023-04-24T10:12:01;13.45;;;7.30;;
74335;SDS011;62755;-33.398;-70.572;2023-04-24T10:14:51;16.33;;;7.72;;
74335;SDS011;62755;-33.398;-70.572;2023-04-24T10:17:41;12.10;;;7.15;;
74335;SDS011;62755;-33.398;-70.572;2023-04-24T10:20:38;11.10;;;6.57;;
74335;SDS011;62755;-33.398;-70.572;2023-04-24T10:23:28;15.77;;;7.57;;
74335;SDS011;62755;-33.398;-70.572;2023-04-24T10:26:19;15.30;;;7.72;;
74335;SDS011;62755;-33.398;-70.572;2023-04-24T10:29:10;13.82;;;8.05;;
74335;SDS011;62755;-33.398;-70.572;2023-04-24T10:32:01;14.95;;;7.35;;
74335;SDS011;62755;-33.398;-70.572;2023-04-24T10:34:50;14.73;;;7.60;;
74335;SDS011;62755;-33.398;-70.572;2023-04-24T10:37:42;19.27;;;8.35;;
74335;SDS011;62755;-33.398;-70.572;2023-04-24T10:40:34;13.30;;;7.13;;
74335;SDS011;62755;-33.398;-70.572;2023-04-24T10:43:24;13.10;;;7.72;;
74335;SDS011;62755;-33.398;-70.572;2023-04-24T10:46:19;22.67;;;10.60;;
74335;SDS011;62755;-33.398;-70.572;2023-04-24T10:49:09;16.67;;;8.90;;
74335;SDS011;62755;-33.398;-70.572;2023-04-24T10:52:00;20.90;;;10.68;;
74335;SDS011;62755;-33.398;-70.572;2023-04-24T10:54:51;21.70;;;12.45;;
74335;SDS011;62755;-33.398;-70.572;2023-04-24T11:00:59;17.60;;;10.73;;
74335;SDS011;62755;-33.398;-70.572;2023-04-24T11:03:53;22.50;;;9.65;;
74335;SDS011;62755;-33.398;-70.572;2023-04-24T11:06:44;27.27;;;10.18;;
74335;SDS011;62755;-33.398;-70.572;2023-04-24T11:09:33;28.70;;;10.30;;
74335;SDS011;62755;-33.398;-70.572;2023-04-24T11:12:26;32.03;;;10.98;;
74335;SDS011;62755;-33.398;-70.572;2023-04-24T11:15:16;24.77;;;10.75;;
74335;SDS011;62755;-33.398;-70.572;2023-04-24T11:18:05;21.95;;;10.70;;
74335;SDS011;62755;-33.398;-70.572;2023-04-24T11:20:57;20.73;;;10.30;;
74335;SDS011;62755;-33.398;-70.572;2023-04-24T11:23:57;14.75;;;8.75;;
74335;SDS011;62755;-33.398;-70.572;2023-04-24T11:27:12;14.98;;;8.73;;
74335;SDS011;62755;-33.398;-70.572;2023-04-24T11:30:04;13.32;;;8.95;;
74335;SDS011;62755;-33.398;-70.572;2023-04-24T11:32:55;16.55;;;8.45;;
74335;SDS011;62755;-33.398;-70.572;2023-04-24T11:35:51;22.13;;;8.50;;
74335;SDS011;62755;-33.398;-70.572;2023-04-24T11:38:42;27.65;;;8.80;;
74335;SDS011;62755;-33.398;-70.572;2023-04-24T11:41:33;16.15;;;7.72;;
74335;SDS011;62755;-33.398;-70.572;2023-04-24T11:44:23;16.13;;;7.93;;
74335;SDS011;62755;-33.398;-70.572;2023-04-24T11:47:14;18.10;;;8.27;;
74335;SDS011;62755;-33.398;-70.572;2023-04-24T11:50:04;16.00;;;9.60;;
74335;SDS011;62755;-33.398;-70.572;2023-04-24T11:52:55;17.70;;;8.55;;
74335;SDS011;62755;-33.398;-70.572;2023-04-24T11:55:48;15.45;;;7.72;;
74335;SDS011;62755;-33.398;-70.572;2023-04-24T11:58:37;17.02;;;7.72;;
74335;SDS011;62755;-33.398;-70.572;2023-04-24T12:01:27;21.90;;;8.45;;
74335;SDS011;62755;-33.398;-70.572;2023-04-24T12:04:17;28.00;;;9.38;;
74335;SDS011;62755;-33.398;-70.572;2023-04-24T12:07:06;38.15;;;10.23;;
74335;SDS011;62755;-33.398;-70.572;2023-04-24T12:09:57;24.27;;;9.80;;
74335;SDS011;62755;-33.398;-70.572;2023-04-24T12:12:49;29.70;;;11.00;;
74335;SDS011;62755;-33.398;-70.572;2023-04-24T12:15:39;19.73;;;10.60;;
74335;SDS011;62755;-33.398;-70.572;2023-04-24T12:18:32;19.73;;;9.93;;
74335;SDS011;62755;-33.398;-70.572;2023-04-24T12:21:38;21.20;;;11.07;;
74335;SDS011;62755;-33.398;-70.572;2023-04-24T12:24:28;24.35;;;11.25;;
74335;SDS011;62755;-33.398;-70.572;2023-04-24T12:27:19;24.50;;;11.30;;
74335;SDS011;62755;-33.398;-70.572;2023-04-24T12:30:12;26.30;;;12.32;;
74335;SDS011;62755;-33.398;-70.572;2023-04-24T12:33:02;27.20;;;14.07;;
74335;SDS011;62755;-33.398;-70.572;2023-04-24T12:35:52;28.60;;;15.07;;
74335;SDS011;62755;-33.398;-70.572;2023-04-24T12:38:43;26.85;;;14.60;;
74335;SDS011;62755;-33.398;-70.572;2023-04-24T12:41:33;28.58;;;15.77;;
74335;SDS011;62755;-33.398;-70.572;2023-04-24T12:44:32;28.77;;;17.13;;
74335;SDS011;62755;-33.398;-70.572;2023-04-24T12:47:24;31.13;;;17.60;;
74335;SDS011;62755;-33.398;-70.572;2023-04-24T12:50:15;35.25;;;19.23;;
74335;SDS011;62755;-33.398;-70.572;2023-04-24T12:53:04;35.58;;;19.60;;
74335;SDS011;62755;-33.398;-70.572;2023-04-24T12:55:57;30.85;;;19.33;;
74335;SDS011;62755;-33.398;-70.572;2023-04-24T12:58:46;34.92;;;20.38;;
74335;SDS011;62755;-33.398;-70.572;2023-04-24T13:01:37;31.83;;;22.50;;
74335;SDS011;62755;-33.398;-70.572;2023-04-24T13:04:29;37.58;;;21.98;;
74335;SDS011;62755;-33.398;-70.572;2023-04-24T13:07:19;39.20;;;23.52;;
74335;SDS011;62755;-33.398;-70.572;2023-04-24T13:10:08;42.05;;;23.08;;
74335;SDS011;62755;-33.398;-70.572;2023-04-24T13:12:59;36.88;;;24.33;;
74335;SDS011;62755;-33.398;-70.572;2023-04-24T13:15:48;44.22;;;24.98;;
74335;SDS011;62755;-33.398;-70.572;2023-04-24T13:18:38;38.45;;;24.05;;
74335;SDS011;62755;-33.398;-70.572;2023-04-24T13:21:29;45.60;;;24.50;;
74335;SDS011;62755;-33.398;-70.572;2023-04-24T13:24:19;43.08;;;25.13;;
74335;SDS011;62755;-33.398;-70.572;2023-04-24T13:27:10;37.03;;;23.88;;
74335;SDS011;62755;-33.398;-70.572;2023-04-24T13:30:00;44.35;;;25.20;;
74335;SDS011;62755;-33.398;-70.572;2023-04-24T13:32:49;36.33;;;25.15;;
74335;SDS011;62755;-33.398;-70.572;2023-04-24T13:35:39;45.95;;;27.00;;
74335;SDS011;62755;-33.398;-70.572;2023-04-24T13:38:30;49.80;;;27.40;;
74335;SDS011;62755;-33.398;-70.572;2023-04-24T13:41:20;47.45;;;26.55;;
74335;SDS011;62755;-33.398;-70.572;2023-04-24T13:44:10;36.83;;;26.70;;
74335;SDS011;62755;-33.398;-70.572;2023-04-24T13:46:59;42.38;;;26.77;;
74335;SDS011;62755;-33.398;-70.572;2023-04-24T13:49:49;39.75;;;27.27;;
74335;SDS011;62755;-33.398;-70.572;2023-04-24T13:52:39;41.63;;;26.92;;
74335;SDS011;62755;-33.398;-70.572;2023-04-24T13:55:31;42.92;;;25.75;;
74335;SDS011;62755;-33.398;-70.572;2023-04-24T13:58:20;43.03;;;26.80;;
74335;SDS011;62755;-33.398;-70.572;2023-04-24T14:01:10;47.15;;;24.13;;
74335;SDS011;62755;-33.398;-70.572;2023-04-24T14:04:00;44.38;;;27.45;;
74335;SDS011;62755;-33.398;-70.572;2023-04-24T14:06:49;43.42;;;27.08;;
74335;SDS011;62755;-33.398;-70.572;2023-04-24T14:09:39;42.47;;;25.60;;
74335;SDS011;62755;-33.398;-70.572;2023-04-24T14:12:30;41.20;;;26.77;;
74335;SDS011;62755;-33.398;-70.572;2023-04-24T14:15:20;46.83;;;33.97;;
74335;SDS011;62755;-33.398;-70.572;2023-04-24T14:18:10;43.88;;;30.38;;
74335;SDS011;62755;-33.398;-70.572;2023-04-24T14:20:59;37.90;;;28.58;;
74335;SDS011;62755;-33.398;-70.572;2023-04-24T14:23:49;45.53;;;27.10;;
74335;SDS011;62755;-33.398;-70.572;2023-04-24T14:26:38;53.28;;;30.13;;
74335;SDS011;62755;-33.398;-70.572;2023-04-24T14:29:30;48.20;;;27.50;;
74335;SDS011;62755;-33.398;-70.572;2023-04-24T14:32:19;50.42;;;27.95;;
74335;SDS011;62755;-33.398;-70.572;2023-04-24T14:35:09;58.25;;;27.33;;
74335;SDS011;62755;-33.398;-70.572;2023-04-24T14:37:59;49.60;;;30.60;;
74335;SDS011;62755;-33.398;-70.572;2023-04-24T14:40:49;51.13;;;35.58;;
74335;SDS011;62755;-33.398;-70.572;2023-04-24T14:43:38;51.85;;;33.22;;
74335;SDS011;62755;-33.398;-70.572;2023-04-24T14:46:30;52.80;;;32.67;;
74335;SDS011;62755;-33.398;-70.572;2023-04-24T14:49:20;51.67;;;32.30;;
74335;SDS011;62755;-33.398;-70.572;2023-04-24T14:52:09;54.67;;;35.83;;
74335;SDS011;62755;-33.398;-70.572;2023-04-24T14:54:59;43.70;;;30.58;;
74335;SDS011;62755;-33.398;-70.572;2023-04-24T14:57:49;47.45;;;28.20;;
74335;SDS011;62755;-33.398;-70.572;2023-04-24T15:00:38;55.47;;;35.72;;
74335;SDS011;62755;-33.398;-70.572;2023-04-24T15:03:30;46.70;;;28.75;;
74335;SDS011;62755;-33.398;-70.572;2023-04-24T15:06:19;48.20;;;28.08;;
74335;SDS011;62755;-33.398;-70.572;2023-04-24T15:09:09;39.08;;;27.20;;
74335;SDS011;62755;-33.398;-70.572;2023-04-24T15:11:58;41.22;;;27.02;;
74335;SDS011;62755;-33.398;-70.572;2023-04-24T15:14:48;40.97;;;28.23;;
74335;SDS011;62755;-33.398;-70.572;2023-04-24T15:17:38;55.45;;;31.40;;
74335;SDS011;62755;-33.398;-70.572;2023-04-24T15:20:29;57.72;;;33.75;;
74335;SDS011;62755;-33.398;-70.572;2023-04-24T15:23:18;44.13;;;31.55;;
74335;SDS011;62755;-33.398;-70.572;2023-04-24T15:26:08;48.63;;;31.23;;
74335;SDS011;62755;-33.398;-70.572;2023-04-24T15:28:57;59.10;;;34.20;;
74335;SDS011;62755;-33.398;-70.572;2023-04-24T15:31:47;57.53;;;33.38;;
74335;SDS011;62755;-33.398;-70.572;2023-04-24T15:34:37;56.60;;;33.95;;
74335;SDS011;62755;-33.398;-70.572;2023-04-24T15:37:28;59.00;;;35.03;;
74335;SDS011;62755;-33.398;-70.572;2023-04-24T15:40:17;52.28;;;31.30;;
74335;SDS011;62755;-33.398;-70.572;2023-04-24T15:43:07;51.95;;;33.47;;
74335;SDS011;62755;-33.398;-70.572;2023-04-24T15:45:56;60.17;;;31.27;;
74335;SDS011;62755;-33.398;-70.572;2023-04-24T15:48:46;52.97;;;31.30;;
74335;SDS011;62755;-33.398;-70.572;2023-04-24T15:51:36;49.47;;;31.05;;
74335;SDS011;62755;-33.398;-70.572;2023-04-24T15:54:27;59.25;;;38.30;;
74335;SDS011;62755;-33.398;-70.572;2023-04-24T15:57:17;60.78;;;37.38;;
74335;SDS011;62755;-33.398;-70.572;2023-04-24T16:00:06;58.58;;;35.25;;
74335;SDS011;62755;-33.398;-70.572;2023-04-24T16:02:57;52.03;;;34.35;;
74335;SDS011;62755;-33.398;-70.572;2023-04-24T16:05:46;52.50;;;35.88;;